createdAt,value
2023-05-05T00:00:21.857Z,0.00
2023-05-05T00:01:21.858Z,0.00
2023-05-05T00:02:21.877Z,0.00
2023-05-05T00:03:21.991Z,0.00
2023-05-05T00:04:22.167Z,0.00
2023-05-05T00:05:21.804Z,0.00
2023-05-05T00:06:21.799Z,0.00
2023-05-05T00:07:21.758Z,0.00
2023-05-05T00:08:21.780Z,0.00
2023-05-05T00:09:21.790Z,0.00
2023-05-05T00:10:21.766Z,0.00
2023-05-05T00:11:21.743Z,0.00
2023-05-05T00:12:21.753Z,0.00
2023-05-05T00:13:21.735Z,0.00
2023-05-05T00:14:21.691Z,0.00
2023-05-05T00:15:21.702Z,0.00
2023-05-05T00:16:21.749Z,0.00
2023-05-05T00:17:21.708Z,0.00
2023-05-05T00:18:21.699Z,0.00
2023-05-05T00:19:21.650Z,0.00
2023-05-05T00:20:21.691Z,0.00
2023-05-05T00:21:21.649Z,0.00
2023-05-05T00:22:21.642Z,0.00
2023-05-05T00:23:21.610Z,0.00
2023-05-05T00:24:21.595Z,0.00
2023-05-05T00:25:21.604Z,0.00
2023-05-05T00:26:21.594Z,0.00
2023-05-05T00:27:21.585Z,0.00
2023-05-05T00:28:21.559Z,0.00
2023-05-05T00:29:21.558Z,0.00
2023-05-05T00:30:21.570Z,0.00
2023-05-05T00:31:21.591Z,0.00
2023-05-05T00:32:21.576Z,0.00
2023-05-05T00:33:21.566Z,0.00
2023-05-05T00:34:21.536Z,0.00
2023-05-05T00:35:21.509Z,0.00
2023-05-05T00:36:21.470Z,0.00
2023-05-05T00:37:21.528Z,0.00
2023-05-05T00:38:21.457Z,0.00
2023-05-05T00:39:21.485Z,0.00
2023-05-05T00:40:21.471Z,0.00
2023-05-05T00:41:21.466Z,0.00
2023-05-05T00:42:21.411Z,0.00
2023-05-05T00:43:21.397Z,0.00
2023-05-05T00:44:21.386Z,0.00
2023-05-05T00:45:21.381Z,0.00
2023-05-05T00:46:21.418Z,0.00
2023-05-05T00:47:21.392Z,0.00
2023-05-05T00:48:21.387Z,0.00
2023-05-05T00:49:21.387Z,0.00
2023-05-05T00:50:21.344Z,0.00
2023-05-05T00:51:21.334Z,0.00
2023-05-05T00:52:21.316Z,0.00
2023-05-05T00:53:21.348Z,0.00
2023-05-05T00:54:21.289Z,0.00
2023-05-05T00:55:21.345Z,0.00
2023-05-05T00:56:21.270Z,0.00
2023-05-05T00:57:21.289Z,0.00
2023-05-05T00:58:21.292Z,0.00
2023-05-05T00:59:21.283Z,0.00
2023-05-05T01:00:21.232Z,0.00
2023-05-05T01:01:21.268Z,0.00
2023-05-05T01:02:21.238Z,0.00
2023-05-05T01:03:21.262Z,0.00
2023-05-05T01:04:21.208Z,0.00
2023-05-05T01:05:21.195Z,0.00
2023-05-05T01:06:21.205Z,0.00
2023-05-05T01:07:21.224Z,0.00
2023-05-05T01:08:21.187Z,0.00
2023-05-05T01:09:21.153Z,0.00
2023-05-05T01:10:21.243Z,0.00
2023-05-05T01:11:21.124Z,0.00
2023-05-05T01:12:21.183Z,0.00
2023-05-05T01:13:21.111Z,0.00
2023-05-05T01:14:21.113Z,0.00
2023-05-05T01:15:21.084Z,0.00
2023-05-05T01:16:21.152Z,0.00
2023-05-05T01:17:21.091Z,0.00
2023-05-05T01:18:21.053Z,0.00
2023-05-05T01:19:21.067Z,0.00
2023-05-05T01:20:21.039Z,0.00
2023-05-05T01:21:21.026Z,0.00
2023-05-05T01:22:21.119Z,0.00
2023-05-05T01:23:21.027Z,0.00
2023-05-05T01:24:21.014Z,0.00
2023-05-05T01:25:20.974Z,0.00
2023-05-05T01:26:21.002Z,0.00
2023-05-05T01:27:21.015Z,0.00
2023-05-05T01:28:20.993Z,0.00
2023-05-05T01:29:20.988Z,0.00
2023-05-05T01:30:20.967Z,0.00
2023-05-05T01:31:20.966Z,0.00
2023-05-05T01:32:20.941Z,0.00
2023-05-05T01:33:20.962Z,0.00
2023-05-05T01:34:20.909Z,0.00
2023-05-05T01:35:20.882Z,0.00
2023-05-05T01:36:20.869Z,0.00
2023-05-05T01:37:20.864Z,0.00
2023-05-05T01:38:20.854Z,0.00
2023-05-05T01:39:20.869Z,0.00
2023-05-05T01:40:20.841Z,0.00
2023-05-05T01:41:20.863Z,0.00
2023-05-05T01:42:20.811Z,0.00
2023-05-05T01:43:20.812Z,0.00
2023-05-05T01:44:20.823Z,0.00
2023-05-05T01:45:20.787Z,0.00
2023-05-05T01:46:20.920Z,0.00
2023-05-05T01:47:20.908Z,0.00
2023-05-05T01:48:20.743Z,0.00
2023-05-05T01:49:20.760Z,0.00
2023-05-05T01:50:20.789Z,0.00
2023-05-05T01:51:20.729Z,0.00
2023-05-05T01:52:20.723Z,0.00
2023-05-05T01:53:20.720Z,0.00
2023-05-05T01:54:20.697Z,0.00
2023-05-05T01:55:20.706Z,0.00
2023-05-05T01:56:20.665Z,0.00
2023-05-05T01:57:20.670Z,0.00
2023-05-05T01:58:20.672Z,0.00
2023-05-05T01:59:20.667Z,0.00
2023-05-05T02:00:20.619Z,0.00
2023-05-05T02:01:20.663Z,0.00
2023-05-05T02:02:20.657Z,0.00
2023-05-05T02:03:20.718Z,0.00
2023-05-05T02:04:20.617Z,0.00
2023-05-05T02:05:20.611Z,0.00
2023-05-05T02:06:20.597Z,0.00
2023-05-05T02:07:20.558Z,0.00
2023-05-05T02:08:20.543Z,0.00
2023-05-05T02:09:20.540Z,0.00
2023-05-05T02:10:20.535Z,0.00
2023-05-05T02:11:20.591Z,0.00
2023-05-05T02:12:20.513Z,0.00
2023-05-05T02:13:20.657Z,0.00
2023-05-05T02:14:20.471Z,0.00
2023-05-05T02:15:20.499Z,0.00
2023-05-05T02:16:20.525Z,0.00
2023-05-05T02:17:20.473Z,0.00
2023-05-05T02:18:20.461Z,0.00
2023-05-05T02:19:20.441Z,0.00
2023-05-05T02:20:20.440Z,0.00
2023-05-05T02:21:20.446Z,0.00
2023-05-05T02:22:20.407Z,0.00
2023-05-05T02:23:20.485Z,0.00
2023-05-05T02:24:20.406Z,0.00
2023-05-05T02:25:20.372Z,0.00
2023-05-05T02:26:20.371Z,0.00
2023-05-05T02:27:20.345Z,0.00
2023-05-05T02:28:20.364Z,0.00
2023-05-05T02:29:20.378Z,0.00
2023-05-05T02:30:20.334Z,0.00
2023-05-05T02:31:20.368Z,0.00
2023-05-05T02:32:20.341Z,0.00
2023-05-05T02:33:20.297Z,0.00
2023-05-05T02:34:20.301Z,0.00
2023-05-05T02:35:20.288Z,0.00
2023-05-05T02:36:20.282Z,0.00
2023-05-05T02:37:20.245Z,0.00
2023-05-05T02:38:20.286Z,0.00
2023-05-05T02:39:20.240Z,0.00
2023-05-05T02:40:20.295Z,0.00
2023-05-05T02:41:20.225Z,0.00
2023-05-05T02:42:20.207Z,0.00
2023-05-05T02:43:20.216Z,0.00
2023-05-05T02:44:20.201Z,0.00
2023-05-05T02:45:20.228Z,0.00
2023-05-05T02:46:20.258Z,0.00
2023-05-05T02:47:20.247Z,0.00
2023-05-05T02:48:20.133Z,0.00
2023-05-05T02:49:20.127Z,0.00
2023-05-05T02:50:20.131Z,0.00
2023-05-05T02:51:20.113Z,0.00
2023-05-05T02:52:20.105Z,0.00
2023-05-05T02:53:20.088Z,0.00
2023-05-05T02:54:20.099Z,0.00
2023-05-05T02:55:20.087Z,0.00
2023-05-05T02:56:20.057Z,0.00
2023-05-05T02:57:20.048Z,0.00
2023-05-05T02:58:20.050Z,0.00
2023-05-05T02:59:20.073Z,0.00
2023-05-05T03:00:20.099Z,0.00
2023-05-05T03:01:20.032Z,0.00
2023-05-05T03:02:20.109Z,0.00
2023-05-05T03:03:20.065Z,0.00
2023-05-05T03:04:19.995Z,0.00
2023-05-05T03:05:20.066Z,0.00
2023-05-05T03:06:19.974Z,0.00
2023-05-05T03:07:19.972Z,0.00
2023-05-05T03:08:19.936Z,0.00
2023-05-05T03:09:19.935Z,0.00
2023-05-05T03:10:19.929Z,0.00
2023-05-05T03:11:19.904Z,0.00
2023-05-05T03:12:19.926Z,0.00
2023-05-05T03:13:19.934Z,0.00
2023-05-05T03:14:19.889Z,0.00
2023-05-05T03:15:19.909Z,0.00
2023-05-05T03:16:19.875Z,0.00
2023-05-05T03:17:19.821Z,0.00
2023-05-05T03:18:19.860Z,0.00
2023-05-05T03:19:19.874Z,0.00
2023-05-05T03:20:19.828Z,0.00
2023-05-05T03:21:19.812Z,0.00
2023-05-05T03:22:19.759Z,0.00
2023-05-05T03:23:19.749Z,0.00
2023-05-05T03:24:19.748Z,0.00
2023-05-05T03:25:19.720Z,0.00
2023-05-05T03:26:19.752Z,0.00
2023-05-05T03:27:19.717Z,0.00
2023-05-05T03:28:19.678Z,0.00
2023-05-05T03:29:19.669Z,0.00
2023-05-05T03:30:19.658Z,0.00
2023-05-05T03:31:19.738Z,0.00
2023-05-05T03:32:19.679Z,0.00
2023-05-05T03:33:19.710Z,0.00
2023-05-05T03:34:19.682Z,0.00
2023-05-05T03:35:19.623Z,0.00
2023-05-05T03:36:19.601Z,0.00
2023-05-05T03:37:19.603Z,0.00
2023-05-05T03:38:19.581Z,0.00
2023-05-05T03:39:19.655Z,0.00
2023-05-05T03:40:19.696Z,0.00
2023-05-05T03:41:19.539Z,0.00
2023-05-05T03:42:19.548Z,0.00
2023-05-05T03:43:19.571Z,0.00
2023-05-05T03:44:19.523Z,0.00
2023-05-05T03:45:19.508Z,0.00
2023-05-05T03:46:19.515Z,0.00
2023-05-05T03:47:19.482Z,5.62
2023-05-05T03:48:19.503Z,5.62
2023-05-05T03:49:19.459Z,5.62
2023-05-05T03:50:19.448Z,5.62
2023-05-05T03:51:19.465Z,5.62
2023-05-05T03:52:19.434Z,5.62
2023-05-05T03:53:19.497Z,11.25
2023-05-05T03:54:19.417Z,11.25
2023-05-05T03:55:19.402Z,11.25
2023-05-05T03:56:19.389Z,11.25
2023-05-05T03:57:19.407Z,11.25
2023-05-05T03:58:19.409Z,16.88
2023-05-05T03:59:19.348Z,16.88
2023-05-05T04:00:19.408Z,16.88
2023-05-05T04:01:19.380Z,22.50
2023-05-05T04:02:19.385Z,22.50
2023-05-05T04:03:19.535Z,28.12
2023-05-05T04:04:19.371Z,28.12
2023-05-05T04:05:19.295Z,28.12
2023-05-05T04:06:19.311Z,33.75
2023-05-05T04:07:19.373Z,33.75
2023-05-05T04:08:19.273Z,33.75
2023-05-05T04:09:19.285Z,39.38
2023-05-05T04:10:19.282Z,39.38
2023-05-05T04:11:19.240Z,39.38
2023-05-05T04:12:19.228Z,45.00
2023-05-05T04:13:19.271Z,45.00
2023-05-05T04:14:19.251Z,50.62
2023-05-05T04:15:19.228Z,50.62
2023-05-05T04:16:19.217Z,56.25
2023-05-05T04:17:19.172Z,56.25
2023-05-05T04:18:19.162Z,61.88
2023-05-05T04:19:19.176Z,61.88
2023-05-05T04:20:19.154Z,67.50
2023-05-05T04:21:19.167Z,73.12
2023-05-05T04:22:19.126Z,73.12
2023-05-05T04:23:19.117Z,78.75
2023-05-05T04:24:19.112Z,78.75
2023-05-05T04:25:19.111Z,84.38
2023-05-05T04:26:19.110Z,90.00
2023-05-05T04:27:19.115Z,90.00
2023-05-05T04:28:20.966Z,90.00
2023-05-05T04:29:19.075Z,95.62
2023-05-05T04:30:19.075Z,95.62
2023-05-05T04:31:19.044Z,95.62
2023-05-05T04:32:19.078Z,95.62
2023-05-05T04:33:19.026Z,101.25
2023-05-05T04:34:19.021Z,101.25
2023-05-05T04:35:18.990Z,106.88
2023-05-05T04:36:19.010Z,106.88
2023-05-05T04:37:18.995Z,106.88
2023-05-05T04:38:19.054Z,106.88
2023-05-05T04:39:18.995Z,112.50
2023-05-05T04:40:18.965Z,118.12
2023-05-05T04:41:18.929Z,123.75
2023-05-05T04:42:18.936Z,129.38
2023-05-05T04:43:18.926Z,135.00
2023-05-05T04:44:18.903Z,146.25
2023-05-05T04:45:18.909Z,151.88
2023-05-05T04:46:18.926Z,157.50
2023-05-05T04:47:18.888Z,163.12
2023-05-05T04:48:18.930Z,168.75
2023-05-05T04:49:18.853Z,174.38
2023-05-05T04:50:18.843Z,174.38
2023-05-05T04:51:18.862Z,180.00
2023-05-05T04:52:18.834Z,180.00
2023-05-05T04:53:18.816Z,180.00
2023-05-05T04:54:18.828Z,185.62
2023-05-05T04:55:18.808Z,191.25
2023-05-05T04:56:18.782Z,191.25
2023-05-05T04:57:18.784Z,191.25
2023-05-05T04:58:18.820Z,185.62
2023-05-05T04:59:18.745Z,185.62
2023-05-05T05:00:18.760Z,185.62
2023-05-05T05:01:18.758Z,185.62
2023-05-05T05:02:18.803Z,185.62
2023-05-05T05:03:18.764Z,191.25
2023-05-05T05:04:18.837Z,191.25
2023-05-05T05:05:18.700Z,196.88
2023-05-05T05:06:18.734Z,208.12
2023-05-05T05:07:18.682Z,213.75
2023-05-05T05:08:18.681Z,225.00
2023-05-05T05:09:18.673Z,230.62
2023-05-05T05:10:18.653Z,241.88
2023-05-05T05:11:18.649Z,253.12
2023-05-05T05:12:18.648Z,258.75
2023-05-05T05:13:18.829Z,270.00
2023-05-05T05:14:18.671Z,281.25
2023-05-05T05:15:18.606Z,292.50
2023-05-05T05:16:18.689Z,303.75
2023-05-05T05:17:18.610Z,320.62
2023-05-05T05:18:18.576Z,331.88
2023-05-05T05:19:18.617Z,337.50
2023-05-05T05:20:18.633Z,343.12
2023-05-05T05:21:18.872Z,354.38
2023-05-05T05:22:18.524Z,354.38
2023-05-05T05:23:18.617Z,360.00
2023-05-05T05:24:18.555Z,365.62
2023-05-05T05:25:19.487Z,371.25
2023-05-05T05:26:18.539Z,376.88
2023-05-05T05:27:18.482Z,376.88
2023-05-05T05:28:18.667Z,376.88
2023-05-05T05:29:18.472Z,376.88
2023-05-05T05:30:18.463Z,371.25
2023-05-05T05:31:18.476Z,376.88
2023-05-05T05:32:18.438Z,371.25
2023-05-05T05:33:18.440Z,371.25
2023-05-05T05:34:18.415Z,360.00
2023-05-05T05:35:18.395Z,365.62
2023-05-05T05:36:18.422Z,360.00
2023-05-05T05:37:18.370Z,360.00
2023-05-05T05:38:18.383Z,360.00
2023-05-05T05:39:18.381Z,354.38
2023-05-05T05:40:18.366Z,360.00
2023-05-05T05:41:18.318Z,360.00
2023-05-05T05:42:18.305Z,354.38
2023-05-05T05:43:18.398Z,360.00
2023-05-05T05:44:18.356Z,365.62
2023-05-05T05:45:18.306Z,472.50
2023-05-05T05:46:18.318Z,585.00
2023-05-05T05:47:18.265Z,618.75
2023-05-05T05:48:18.268Z,641.25
2023-05-05T05:49:18.265Z,663.75
2023-05-05T05:50:18.273Z,652.50
2023-05-05T05:51:18.260Z,663.75
2023-05-05T05:52:18.216Z,663.75
2023-05-05T05:53:18.206Z,646.88
2023-05-05T05:54:18.212Z,686.25
2023-05-05T05:55:18.249Z,691.88
2023-05-05T05:56:18.201Z,697.50
2023-05-05T05:57:18.232Z,410.62
2023-05-05T05:58:18.245Z,540.00
2023-05-05T05:59:18.140Z,708.75
2023-05-05T06:00:18.149Z,562.50
2023-05-05T06:01:18.138Z,781.88
2023-05-05T06:02:18.186Z,776.25
2023-05-05T06:03:18.246Z,742.50
2023-05-05T06:04:18.159Z,742.50
2023-05-05T06:05:18.068Z,742.50
2023-05-05T06:06:18.061Z,742.50
2023-05-05T06:07:18.078Z,691.88
2023-05-05T06:08:18.041Z,675.00
2023-05-05T06:09:18.036Z,703.12
2023-05-05T06:10:27.373Z,523.12
2023-05-05T06:11:18.004Z,680.62
2023-05-05T06:12:18.004Z,748.12
2023-05-05T06:13:18.054Z,770.62
2023-05-05T06:14:18.909Z,928.12
2023-05-05T06:15:17.977Z,1012.50
2023-05-05T06:16:17.982Z,1018.12
2023-05-05T06:17:17.949Z,1006.88
2023-05-05T06:18:18.096Z,984.38
2023-05-05T06:19:17.951Z,995.62
2023-05-05T06:20:17.914Z,1012.50
2023-05-05T06:21:17.899Z,1063.12
2023-05-05T06:22:17.900Z,1125.00
2023-05-05T06:23:17.898Z,838.12
2023-05-05T06:24:17.873Z,1192.50
2023-05-05T06:25:17.872Z,1271.25
2023-05-05T06:26:17.848Z,1282.50
2023-05-05T06:27:17.856Z,1305.00
2023-05-05T06:28:17.821Z,1400.62
2023-05-05T06:29:17.820Z,1372.50
2023-05-05T06:30:17.875Z,1344.38
2023-05-05T06:31:17.832Z,1366.88
2023-05-05T06:32:17.792Z,1350.00
2023-05-05T06:33:17.782Z,1158.75
2023-05-05T06:34:17.865Z,1288.12
2023-05-05T06:35:17.784Z,1327.50
2023-05-05T06:36:17.792Z,1327.50
2023-05-05T06:37:17.761Z,1316.25
2023-05-05T06:38:17.730Z,1333.12
2023-05-05T06:39:17.742Z,1299.38
2023-05-05T06:40:18.178Z,883.12
2023-05-05T06:41:17.712Z,973.12
2023-05-05T06:42:17.720Z,1254.38
2023-05-05T06:43:17.748Z,1108.12
2023-05-05T06:44:17.674Z,1035.00
2023-05-05T06:45:17.689Z,1209.38
2023-05-05T06:46:17.735Z,1153.12
2023-05-05T06:47:17.641Z,1192.50
2023-05-05T06:48:17.619Z,1243.12
2023-05-05T06:49:17.618Z,1254.38
2023-05-05T06:50:17.650Z,1192.50
2023-05-05T06:51:17.648Z,1282.50
2023-05-05T06:52:17.605Z,1282.50
2023-05-05T06:53:17.617Z,1333.12
2023-05-05T06:54:17.579Z,1383.75
2023-05-05T06:55:17.559Z,1456.88
2023-05-05T06:56:17.540Z,1575.00
2023-05-05T06:57:17.586Z,1411.88
2023-05-05T06:58:17.517Z,1006.88
2023-05-05T06:59:17.534Z,838.12
2023-05-05T07:00:17.586Z,1046.25
2023-05-05T07:01:17.561Z,1305.00
2023-05-05T07:02:17.522Z,1175.62
2023-05-05T07:03:17.516Z,911.25
2023-05-05T07:04:17.632Z,905.62
2023-05-05T07:05:17.461Z,826.88
2023-05-05T07:06:17.450Z,860.62
2023-05-05T07:07:17.433Z,900.00
2023-05-05T07:08:17.428Z,900.00
2023-05-05T07:09:17.670Z,905.62
2023-05-05T07:10:17.467Z,905.62
2023-05-05T07:11:17.398Z,883.12
2023-05-05T07:12:17.386Z,832.50
2023-05-05T07:13:17.606Z,770.62
2023-05-05T07:14:17.360Z,714.38
2023-05-05T07:15:27.336Z,680.62
2023-05-05T07:16:17.371Z,641.25
2023-05-05T07:17:17.357Z,596.25
2023-05-05T07:18:17.338Z,556.88
2023-05-05T07:19:17.322Z,517.50
2023-05-05T07:20:17.301Z,478.12
2023-05-05T07:21:17.290Z,438.75
2023-05-05T07:22:17.301Z,410.62
2023-05-05T07:23:17.383Z,393.75
2023-05-05T07:24:17.293Z,388.12
2023-05-05T07:25:17.284Z,388.12
2023-05-05T07:26:17.242Z,393.75
2023-05-05T07:27:17.244Z,393.75
2023-05-05T07:28:17.227Z,399.38
2023-05-05T07:29:17.232Z,405.00
2023-05-05T07:30:19.004Z,416.25
2023-05-05T07:31:17.232Z,433.12
2023-05-05T07:32:17.193Z,450.00
2023-05-05T07:33:17.181Z,478.12
2023-05-05T07:34:17.170Z,506.25
2023-05-05T07:35:17.192Z,545.62
2023-05-05T07:36:17.141Z,568.12
2023-05-05T07:37:17.134Z,579.38
2023-05-05T07:38:17.118Z,585.00
2023-05-05T07:39:18.115Z,590.62
2023-05-05T07:40:17.114Z,607.50
2023-05-05T07:41:17.092Z,613.12
2023-05-05T07:42:17.094Z,641.25
2023-05-05T07:43:17.102Z,669.38
2023-05-05T07:44:17.056Z,714.38
2023-05-05T07:45:17.045Z,736.88
2023-05-05T07:46:17.059Z,770.62
2023-05-05T07:47:17.026Z,787.50
2023-05-05T07:48:17.029Z,804.38
2023-05-05T07:49:17.012Z,815.62
2023-05-05T07:50:16.996Z,832.50
2023-05-05T07:51:17.002Z,855.00
2023-05-05T07:52:16.988Z,883.12
2023-05-05T07:53:17.048Z,877.50
2023-05-05T07:54:16.956Z,843.75
2023-05-05T07:55:16.956Z,815.62
2023-05-05T07:56:16.922Z,810.00
2023-05-05T07:57:16.970Z,804.38
2023-05-05T07:58:16.913Z,804.38
2023-05-05T07:59:16.920Z,804.38
2023-05-05T08:00:16.903Z,821.25
2023-05-05T08:01:16.916Z,871.88
2023-05-05T08:02:16.913Z,860.62
2023-05-05T08:03:16.929Z,860.62
2023-05-05T08:04:17.044Z,877.50
2023-05-05T08:05:16.875Z,916.88
2023-05-05T08:06:16.873Z,973.12
2023-05-05T08:07:16.875Z,1569.38
2023-05-05T08:08:16.838Z,1051.88
2023-05-05T08:09:16.798Z,1395.00
2023-05-05T08:10:16.799Z,1108.12
2023-05-05T08:11:16.833Z,1546.88
2023-05-05T08:12:16.795Z,1861.88
2023-05-05T08:13:16.874Z,1940.62
2023-05-05T08:14:16.752Z,1372.50
2023-05-05T08:15:16.732Z,1164.38
2023-05-05T08:16:16.775Z,1006.88
2023-05-05T08:17:16.719Z,1063.12
2023-05-05T08:18:16.743Z,1035.00
2023-05-05T08:19:25.241Z,1119.38
2023-05-05T08:20:16.733Z,1040.62
2023-05-05T08:21:16.833Z,1018.12
2023-05-05T08:22:16.677Z,990.00
2023-05-05T08:23:16.657Z,973.12
2023-05-05T08:24:16.673Z,956.25
2023-05-05T08:25:16.687Z,945.00
2023-05-05T08:26:16.620Z,933.75
2023-05-05T08:27:16.628Z,922.50
2023-05-05T08:28:16.637Z,916.88
2023-05-05T08:29:16.598Z,933.75
2023-05-05T08:30:16.632Z,945.00
2023-05-05T08:31:16.627Z,973.12
2023-05-05T08:32:16.600Z,1012.50
2023-05-05T08:33:16.630Z,1051.88
2023-05-05T08:34:16.572Z,1091.25
2023-05-05T08:35:16.591Z,1141.88
2023-05-05T08:36:16.521Z,1220.62
2023-05-05T08:37:16.541Z,1293.75
2023-05-05T08:38:16.567Z,1378.12
2023-05-05T08:39:16.524Z,1468.12
2023-05-05T08:40:16.529Z,1530.00
2023-05-05T08:41:16.571Z,1738.12
2023-05-05T08:42:29.043Z,1755.00
2023-05-05T08:43:16.476Z,1738.12
2023-05-05T08:44:16.495Z,1800.00
2023-05-05T08:45:16.468Z,2379.38
2023-05-05T08:46:16.503Z,1845.00
2023-05-05T08:47:16.434Z,2182.50
2023-05-05T08:48:16.416Z,1518.75
2023-05-05T08:49:16.415Z,1749.38
2023-05-05T08:50:16.396Z,1743.75
2023-05-05T08:51:16.392Z,1597.50
2023-05-05T08:52:16.426Z,1496.25
2023-05-05T08:53:16.389Z,1350.00
2023-05-05T08:54:16.348Z,1226.25
2023-05-05T08:55:16.374Z,1186.88
2023-05-05T08:56:16.327Z,1203.75
2023-05-05T08:57:16.335Z,1158.75
2023-05-05T08:58:16.296Z,1136.25
2023-05-05T08:59:16.327Z,1136.25
2023-05-05T09:00:16.573Z,1141.88
2023-05-05T09:01:16.369Z,1198.12
2023-05-05T09:02:16.276Z,1141.88
2023-05-05T09:03:16.476Z,1119.38
2023-05-05T09:04:16.236Z,1096.88
2023-05-05T09:05:16.258Z,1063.12
2023-05-05T09:06:16.254Z,1035.00
2023-05-05T09:07:16.223Z,1012.50
2023-05-05T09:08:16.186Z,990.00
2023-05-05T09:09:16.222Z,995.62
2023-05-05T09:10:16.202Z,1035.00
2023-05-05T09:11:16.166Z,1085.62
2023-05-05T09:12:16.149Z,1119.38
2023-05-05T09:13:16.281Z,1147.50
2023-05-05T09:14:16.130Z,1198.12
2023-05-05T09:15:16.149Z,1293.75
2023-05-05T09:16:16.155Z,1434.38
2023-05-05T09:17:16.101Z,1676.25
2023-05-05T09:18:16.085Z,2216.25
2023-05-05T09:19:16.104Z,2413.12
2023-05-05T09:20:16.086Z,2739.38
2023-05-05T09:21:16.088Z,2266.88
2023-05-05T09:22:16.059Z,1665.00
2023-05-05T09:23:16.079Z,1850.62
2023-05-05T09:24:16.068Z,1653.75
2023-05-05T09:25:16.060Z,1845.00
2023-05-05T09:26:16.040Z,2143.12
2023-05-05T09:27:16.091Z,1704.38
2023-05-05T09:28:16.027Z,1704.38
2023-05-05T09:29:15.994Z,1918.12
2023-05-05T09:30:15.997Z,2126.25
2023-05-05T09:31:16.382Z,2531.25
2023-05-05T09:32:15.978Z,2497.50
2023-05-05T09:33:16.023Z,2041.88
2023-05-05T09:34:15.945Z,2070.00
2023-05-05T09:35:15.950Z,2272.50
2023-05-05T09:36:15.935Z,1828.12
2023-05-05T09:37:15.901Z,1681.88
2023-05-05T09:38:15.981Z,1676.25
2023-05-05T09:39:15.914Z,1811.25
2023-05-05T09:40:15.903Z,1822.50
2023-05-05T09:41:15.871Z,1805.62
2023-05-05T09:42:15.888Z,1805.62
2023-05-05T09:43:15.857Z,1845.00
2023-05-05T09:44:15.847Z,2160.00
2023-05-05T09:45:15.845Z,2120.62
2023-05-05T09:46:15.852Z,1620.00
2023-05-05T09:47:28.507Z,1490.62
2023-05-05T09:48:15.894Z,1468.12
2023-05-05T09:49:15.826Z,1507.50
2023-05-05T09:50:15.811Z,1546.88
2023-05-05T09:51:15.770Z,1603.12
2023-05-05T09:52:15.798Z,1676.25
2023-05-05T09:53:15.775Z,1906.88
2023-05-05T09:54:15.824Z,1912.50
2023-05-05T09:55:15.728Z,1575.00
2023-05-05T09:56:15.702Z,1473.75
2023-05-05T09:57:15.700Z,1473.75
2023-05-05T09:58:15.771Z,1485.00
2023-05-05T09:59:15.674Z,1501.88
2023-05-05T10:00:15.701Z,1541.25
2023-05-05T10:01:15.692Z,1608.75
2023-05-05T10:02:15.654Z,1608.75
2023-05-05T10:03:15.698Z,1631.25
2023-05-05T10:04:15.625Z,1636.88
2023-05-05T10:05:15.684Z,1603.12
2023-05-05T10:06:15.638Z,1496.25
2023-05-05T10:07:15.610Z,1327.50
2023-05-05T10:08:15.582Z,1254.38
2023-05-05T10:09:15.570Z,1209.38
2023-05-05T10:10:15.619Z,1198.12
2023-05-05T10:11:15.569Z,1231.88
2023-05-05T10:12:15.541Z,1276.88
2023-05-05T10:13:15.600Z,1316.25
2023-05-05T10:14:15.524Z,1338.75
2023-05-05T10:15:15.512Z,1355.62
2023-05-05T10:16:15.533Z,1372.50
2023-05-05T10:17:15.490Z,1378.12
2023-05-05T10:18:15.514Z,1378.12
2023-05-05T10:19:15.494Z,1366.88
2023-05-05T10:20:15.468Z,1366.88
2023-05-05T10:21:15.451Z,1389.38
2023-05-05T10:22:15.459Z,1428.75
2023-05-05T10:23:15.460Z,1479.38
2023-05-05T10:24:15.414Z,1563.75
2023-05-05T10:25:15.432Z,1653.75
2023-05-05T10:26:15.411Z,1743.75
2023-05-05T10:27:15.398Z,1816.88
2023-05-05T10:28:15.416Z,1794.38
2023-05-05T10:29:15.426Z,1766.25
2023-05-05T10:30:15.357Z,1771.88
2023-05-05T10:31:25.221Z,1839.38
2023-05-05T10:32:37.129Z,1833.75
2023-05-05T10:33:30.814Z,1839.38
2023-05-05T10:34:15.444Z,1800.00
2023-05-05T10:35:15.338Z,1811.25
2023-05-05T10:36:15.338Z,1845.00
2023-05-05T10:37:15.306Z,1828.12
2023-05-05T10:38:15.283Z,1873.12
2023-05-05T10:39:15.294Z,2092.50
2023-05-05T10:40:15.300Z,2323.12
2023-05-05T10:41:15.266Z,2508.75
2023-05-05T10:42:15.288Z,2176.88
2023-05-05T10:43:15.275Z,2126.25
2023-05-05T10:44:15.244Z,2340.00
2023-05-05T10:45:15.281Z,2160.00
2023-05-05T10:46:15.294Z,2137.50
2023-05-05T10:47:15.280Z,2086.88
2023-05-05T10:48:15.214Z,2221.88
2023-05-05T10:49:15.221Z,2306.25
2023-05-05T10:50:15.233Z,2700.00
2023-05-05T10:51:23.954Z,2300.62
2023-05-05T10:52:15.236Z,2041.88
2023-05-05T10:53:15.378Z,1991.25
2023-05-05T10:54:15.257Z,2109.38
2023-05-05T10:55:15.179Z,2508.75
2023-05-05T10:56:15.112Z,3425.62
2023-05-05T10:57:15.101Z,3735.00
2023-05-05T10:58:15.120Z,3448.12
2023-05-05T10:59:15.120Z,3667.50
2023-05-05T11:00:15.156Z,3616.88
2023-05-05T11:01:15.119Z,3684.38
2023-05-05T11:02:15.088Z,3661.88
2023-05-05T11:03:15.186Z,3735.00
2023-05-05T11:04:15.062Z,3273.75
2023-05-05T11:05:15.270Z,3549.38
2023-05-05T11:06:15.023Z,3656.25
2023-05-05T11:07:15.103Z,3718.12
2023-05-05T11:08:14.979Z,3892.50
2023-05-05T11:09:14.970Z,3830.62
2023-05-05T11:10:15.242Z,4083.75
2023-05-05T11:11:14.961Z,3054.38
2023-05-05T11:12:14.947Z,3616.88
2023-05-05T11:13:14.989Z,2131.88
2023-05-05T11:14:14.917Z,2835.00
2023-05-05T11:15:14.916Z,1929.38
2023-05-05T11:16:14.973Z,2019.38
2023-05-05T11:17:14.909Z,1878.75
2023-05-05T11:18:14.985Z,2176.88
2023-05-05T11:19:14.879Z,2086.88
2023-05-05T11:20:14.904Z,2424.38
2023-05-05T11:21:14.863Z,2295.00
2023-05-05T11:22:14.847Z,2835.00
2023-05-05T11:23:16.629Z,2036.25
2023-05-05T11:24:14.831Z,1940.62
2023-05-05T11:25:14.828Z,2075.62
2023-05-05T11:26:14.857Z,1839.38
2023-05-05T11:27:14.836Z,1755.00
2023-05-05T11:28:14.885Z,1788.75
2023-05-05T11:29:14.826Z,2902.50
2023-05-05T11:30:15.741Z,3211.88
2023-05-05T11:31:14.890Z,2975.62
2023-05-05T11:32:14.788Z,2475.00
2023-05-05T11:33:14.739Z,2250.00
2023-05-05T11:34:14.786Z,2728.12
2023-05-05T11:35:14.745Z,3566.25
2023-05-05T11:36:14.773Z,3296.25
2023-05-05T11:37:14.781Z,3076.88
2023-05-05T11:38:14.724Z,3206.25
2023-05-05T11:39:14.730Z,3268.12
2023-05-05T11:40:14.742Z,3256.88
2023-05-05T11:41:14.707Z,2908.12
2023-05-05T11:42:14.686Z,2908.12
2023-05-05T11:43:14.636Z,2953.12
2023-05-05T11:44:14.663Z,2953.12
2023-05-05T11:45:14.620Z,2908.12
2023-05-05T11:46:14.732Z,2874.38
2023-05-05T11:47:14.679Z,2936.25
2023-05-05T11:48:14.737Z,2958.75
2023-05-05T11:49:14.620Z,2806.88
2023-05-05T11:50:14.613Z,2486.25
2023-05-05T11:51:14.583Z,2829.38
2023-05-05T11:52:14.660Z,2941.88
2023-05-05T11:53:14.566Z,2902.50
2023-05-05T11:54:14.586Z,2666.25
2023-05-05T11:55:14.545Z,2649.38
2023-05-05T11:56:14.580Z,2542.50
2023-05-05T11:57:14.526Z,2340.00
2023-05-05T11:58:14.523Z,2250.00
2023-05-05T11:59:14.543Z,2064.38
2023-05-05T12:00:14.551Z,2008.12
2023-05-05T12:01:14.538Z,1912.50
2023-05-05T12:02:14.641Z,1901.25
2023-05-05T12:03:14.556Z,1951.88
2023-05-05T12:04:14.605Z,1884.38
2023-05-05T12:05:14.448Z,1895.62
2023-05-05T12:06:14.447Z,1861.88
2023-05-05T12:07:14.445Z,1946.25
2023-05-05T12:08:14.417Z,1895.62
2023-05-05T12:09:14.387Z,1974.38
2023-05-05T12:10:14.403Z,2092.50
2023-05-05T12:11:14.375Z,2188.12
2023-05-05T12:12:14.392Z,2199.38
2023-05-05T12:13:14.416Z,2306.25
2023-05-05T12:14:14.369Z,2621.25
2023-05-05T12:15:14.357Z,2508.75
2023-05-05T12:16:14.365Z,2531.25
2023-05-05T12:17:14.348Z,2334.38
2023-05-05T12:18:14.319Z,2497.50
2023-05-05T12:19:14.324Z,2570.62
2023-05-05T12:20:14.418Z,2536.88
2023-05-05T12:21:14.296Z,2475.00
2023-05-05T12:22:14.271Z,2553.75
2023-05-05T12:23:14.274Z,2649.38
2023-05-05T12:24:14.249Z,2542.50
2023-05-05T12:25:14.264Z,2587.50
2023-05-05T12:26:14.262Z,2598.75
2023-05-05T12:27:14.270Z,2643.75
2023-05-05T12:28:14.328Z,2643.75
2023-05-05T12:29:14.244Z,2576.25
2023-05-05T12:30:14.197Z,2334.38
2023-05-05T12:31:14.401Z,2311.88
2023-05-05T12:32:14.340Z,2193.75
2023-05-05T12:33:14.207Z,2131.88
2023-05-05T12:34:14.201Z,2092.50